sensor_id;sensor_type;location;lat;lon;timestamp;P1;durP1;ratioP1;P2;durP2;ratioP2
9665;SDS011;4871;52.004;5.924;2023-05-29T00:00:00;7.20;;;2.80;;
9665;SDS011;4871;52.004;5.924;2023-05-29T00:01:00;7.20;;;2.80;;
9665;SDS011;4871;52.004;5.924;2023-05-29T00:02:00;7.20;;;2.80;;
9665;SDS011;4871;52.004;5.924;2023-05-29T00:03:01;7.20;;;2.80;;
9665;SDS011;4871;52.004;5.924;2023-05-29T00:04:00;7.20;;;2.80;;
9665;SDS011;4871;52.004;5.924;2023-05-29T00:05:03;7.20;;;2.80;;
9665;SDS011;4871;52.004;5.924;2023-05-29T00:06:01;7.20;;;2.80;;
9665;SDS011;4871;52.004;5.924;2023-05-29T00:07:00;7.20;;;2.80;;
9665;SDS011;4871;52.004;5.924;2023-05-29T00:08:00;7.20;;;2.80;;
9665;SDS011;4871;52.004;5.924;2023-05-29T00:09:00;7.20;;;2.80;;
9665;SDS011;4871;52.004;5.924;2023-05-29T00:10:00;7.20;;;2.80;;
9665;SDS011;4871;52.004;5.924;2023-05-29T00:11:00;7.20;;;2.80;;
9665;SDS011;4871;52.004;5.924;2023-05-29T00:12:01;7.20;;;2.80;;
9665;SDS011;4871;52.004;5.924;2023-05-29T00:13:01;7.20;;;2.80;;
9665;SDS011;4871;52.004;5.924;2023-05-29T00:14:00;7.20;;;2.80;;
9665;SDS011;4871;52.004;5.924;2023-05-29T00:15:00;7.20;;;2.80;;
9665;SDS011;4871;52.004;5.924;2023-05-29T00:16:00;7.20;;;2.80;;
9665;SDS011;4871;52.004;5.924;2023-05-29T00:17:00;7.20;;;2.80;;
9665;SDS011;4871;52.004;5.924;2023-05-29T00:18:01;7.20;;;2.80;;
9665;SDS011;4871;52.004;5.924;2023-05-29T00:19:00;7.20;;;2.80;;
9665;SDS011;4871;52.004;5.924;2023-05-29T00:20:02;7.20;;;2.80;;
9665;SDS011;4871;52.004;5.924;2023-05-29T00:21:00;7.20;;;2.80;;
9665;SDS011;4871;52.004;5.924;2023-05-29T00:22:00;7.20;;;2.80;;
9665;SDS011;4871;52.004;5.924;2023-05-29T00:23:02;8.00;;;2.80;;
9665;SDS011;4871;52.004;5.924;2023-05-29T00:24:00;8.00;;;2.80;;
9665;SDS011;4871;52.004;5.924;2023-05-29T00:25:00;8.00;;;2.80;;
9665;SDS011;4871;52.004;5.924;2023-05-29T00:26:00;8.00;;;2.80;;
9665;SDS011;4871;52.004;5.924;2023-05-29T00:27:01;8.00;;;2.80;;
9665;SDS011;4871;52.004;5.924;2023-05-29T00:28:00;8.00;;;2.80;;
9665;SDS011;4871;52.004;5.924;2023-05-29T00:29:00;8.00;;;2.80;;
9665;SDS011;4871;52.004;5.924;2023-05-29T00:30:00;8.00;;;2.80;;
9665;SDS011;4871;52.004;5.924;2023-05-29T00:31:00;8.00;;;2.80;;
9665;SDS011;4871;52.004;5.924;2023-05-29T00:32:00;8.00;;;2.80;;
9665;SDS011;4871;52.004;5.924;2023-05-29T00:33:00;8.00;;;2.80;;
9665;SDS011;4871;52.004;5.924;2023-05-29T00:34:00;8.00;;;2.80;;
9665;SDS011;4871;52.004;5.924;2023-05-29T00:35:00;8.00;;;2.80;;
9665;SDS011;4871;52.004;5.924;2023-05-29T00:36:00;8.00;;;2.80;;
9665;SDS011;4871;52.004;5.924;2023-05-29T00:37:01;8.00;;;2.80;;
9665;SDS011;4871;52.004;5.924;2023-05-29T00:38:00;8.00;;;2.80;;
9665;SDS011;4871;52.004;5.924;2023-05-29T00:39:00;8.00;;;2.80;;
9665;SDS011;4871;52.004;5.924;2023-05-29T00:40:00;8.00;;;2.80;;
9665;SDS011;4871;52.004;5.924;2023-05-29T00:41:00;8.00;;;2.80;;
9665;SDS011;4871;52.004;5.924;2023-05-29T00:42:00;8.00;;;2.80;;
9665;SDS011;4871;52.004;5.924;2023-05-29T00:43:00;8.00;;;2.80;;
9665;SDS011;4871;52.004;5.924;2023-05-29T00:44:00;8.00;;;2.80;;
9665;SDS011;4871;52.004;5.924;2023-05-29T00:45:00;8.00;;;2.80;;
9665;SDS011;4871;52.004;5.924;2023-05-29T00:46:00;8.00;;;2.80;;
9665;SDS011;4871;52.004;5.924;2023-05-29T00:47:00;8.00;;;2.80;;
9665;SDS011;4871;52.004;5.924;2023-05-29T00:48:00;8.00;;;2.80;;
9665;SDS011;4871;52.004;5.924;2023-05-29T00:49:00;8.00;;;2.80;;
9665;SDS011;4871;52.004;5.924;2023-05-29T00:50:00;8.00;;;2.80;;
9665;SDS011;4871;52.004;5.924;2023-05-29T00:51:00;8.00;;;2.80;;
9665;SDS011;4871;52.004;5.924;2023-05-29T00:52:00;8.00;;;2.80;;
9665;SDS011;4871;52.004;5.924;2023-05-29T00:53:01;6.20;;;2.40;;
9665;SDS011;4871;52.004;5.924;2023-05-29T00:54:00;6.20;;;2.40;;
9665;SDS011;4871;52.004;5.924;2023-05-29T00:55:02;6.20;;;2.40;;
9665;SDS011;4871;52.004;5.924;2023-05-29T00:56:00;6.20;;;2.40;;
9665;SDS011;4871;52.004;5.924;2023-05-29T00:57:01;6.20;;;2.40;;
9665;SDS011;4871;52.004;5.924;2023-05-29T00:58:00;6.20;;;2.40;;
9665;SDS011;4871;52.004;5.924;2023-05-29T00:59:00;6.20;;;2.40;;
9665;SDS011;4871;52.004;5.924;2023-05-29T01:00:00;6.20;;;2.40;;
9665;SDS011;4871;52.004;5.924;2023-05-29T01:01:00;6.20;;;2.40;;
9665;SDS011;4871;52.004;5.924;2023-05-29T01:02:00;6.20;;;2.40;;
9665;SDS011;4871;52.004;5.924;2023-05-29T01:03:02;6.20;;;2.40;;
9665;SDS011;4871;52.004;5.924;2023-05-29T01:04:00;6.20;;;2.40;;
9665;SDS011;4871;52.004;5.924;2023-05-29T01:05:00;6.20;;;2.40;;
9665;SDS011;4871;52.004;5.924;2023-05-29T01:06:00;6.20;;;2.40;;
9665;SDS011;4871;52.004;5.924;2023-05-29T01:07:00;6.20;;;2.40;;
9665;SDS011;4871;52.004;5.924;2023-05-29T01:08:00;6.20;;;2.40;;
9665;SDS011;4871;52.004;5.924;2023-05-29T01:09:00;6.20;;;2.40;;
9665;SDS011;4871;52.004;5.924;2023-05-29T01:10:00;6.20;;;2.40;;
9665;SDS011;4871;52.004;5.924;2023-05-29T01:11:02;6.20;;;2.40;;
9665;SDS011;4871;52.004;5.924;2023-05-29T01:12:03;6.20;;;2.40;;
9665;SDS011;4871;52.004;5.924;2023-05-29T01:13:02;6.20;;;2.40;;
9665;SDS011;4871;52.004;5.924;2023-05-29T01:14:01;6.20;;;2.40;;
9665;SDS011;4871;52.004;5.924;2023-05-29T01:15:04;6.20;;;2.40;;
9665;SDS011;4871;52.004;5.924;2023-05-29T01:16:01;6.20;;;2.40;;
9665;SDS011;4871;52.004;5.924;2023-05-29T01:17:04;6.20;;;2.40;;
9665;SDS011;4871;52.004;5.924;2023-05-29T01:18:06;6.20;;;2.40;;
9665;SDS011;4871;52.004;5.924;2023-05-29T01:19:00;6.20;;;2.40;;
9665;SDS011;4871;52.004;5.924;2023-05-29T01:20:08;6.20;;;2.40;;
9665;SDS011;4871;52.004;5.924;2023-05-29T01:21:03;6.20;;;2.40;;
9665;SDS011;4871;52.004;5.924;2023-05-29T01:22:03;6.20;;;2.40;;
9665;SDS011;4871;52.004;5.924;2023-05-29T01:23:06;7.40;;;2.40;;
9665;SDS011;4871;52.004;5.924;2023-05-29T01:24:02;7.40;;;2.40;;
9665;SDS011;4871;52.004;5.924;2023-05-29T01:25:02;7.40;;;2.40;;
9665;SDS011;4871;52.004;5.924;2023-05-29T01:26:07;7.40;;;2.40;;
9665;SDS011;4871;52.004;5.924;2023-05-29T01:27:00;7.40;;;2.40;;
9665;SDS011;4871;52.004;5.924;2023-05-29T01:28:00;7.40;;;2.40;;
9665;SDS011;4871;52.004;5.924;2023-05-29T01:29:00;7.40;;;2.40;;
9665;SDS011;4871;52.004;5.924;2023-05-29T01:30:01;7.40;;;2.40;;
9665;SDS011;4871;52.004;5.924;2023-05-29T01:31:00;7.40;;;2.40;;
9665;SDS011;4871;52.004;5.924;2023-05-29T01:32:01;7.40;;;2.40;;
9665;SDS011;4871;52.004;5.924;2023-05-29T01:33:00;7.40;;;2.40;;
9665;SDS011;4871;52.004;5.924;2023-05-29T01:34:00;7.40;;;2.40;;
9665;SDS011;4871;52.004;5.924;2023-05-29T01:35:00;7.40;;;2.40;;
9665;SDS011;4871;52.004;5.924;2023-05-29T01:36:00;7.40;;;2.40;;
9665;SDS011;4871;52.004;5.924;2023-05-29T01:37:00;7.40;;;2.40;;
9665;SDS011;4871;52.004;5.924;2023-05-29T01:38:00;7.40;;;2.40;;
9665;SDS011;4871;52.004;5.924;2023-05-29T01:39:00;7.40;;;2.40;;
9665;SDS011;4871;52.004;5.924;2023-05-29T01:40:00;7.40;;;2.40;;
9665;SDS011;4871;52.004;5.924;2023-05-29T01:41:00;7.40;;;2.40;;
9665;SDS011;4871;52.004;5.924;2023-05-29T01:42:00;7.40;;;2.40;;
9665;SDS011;4871;52.004;5.924;2023-05-29T01:43:01;7.40;;;2.40;;
9665;SDS011;4871;52.004;5.924;2023-05-29T01:44:01;7.40;;;2.40;;
9665;SDS011;4871;52.004;5.924;2023-05-29T01:45:00;7.40;;;2.40;;
9665;SDS011;4871;52.004;5.924;2023-05-29T01:46:00;7.40;;;2.40;;
9665;SDS011;4871;52.004;5.924;2023-05-29T01:47:00;7.40;;;2.40;;
9665;SDS011;4871;52.004;5.924;2023-05-29T01:48:00;7.40;;;2.40;;
9665;SDS011;4871;52.004;5.924;2023-05-29T01:49:00;7.40;;;2.40;;
9665;SDS011;4871;52.004;5.924;2023-05-29T01:50:00;7.40;;;2.40;;
9665;SDS011;4871;52.004;5.924;2023-05-29T01:51:00;7.40;;;2.40;;
9665;SDS011;4871;52.004;5.924;2023-05-29T01:52:00;7.40;;;2.40;;
9665;SDS011;4871;52.004;5.924;2023-05-29T01:53:00;8.00;;;2.20;;
9665;SDS011;4871;52.004;5.924;2023-05-29T01:54:00;8.00;;;2.20;;
9665;SDS011;4871;52.004;5.924;2023-05-29T01:55:00;8.00;;;2.20;;
9665;SDS011;4871;52.004;5.924;2023-05-29T01:56:00;8.00;;;2.20;;
9665;SDS011;4871;52.004;5.924;2023-05-29T01:57:00;8.00;;;2.20;;
9665;SDS011;4871;52.004;5.924;2023-05-29T01:58:00;8.00;;;2.20;;
9665;SDS011;4871;52.004;5.924;2023-05-29T01:59:00;8.00;;;2.20;;
9665;SDS011;4871;52.004;5.924;2023-05-29T02:00:00;8.00;;;2.20;;
9665;SDS011;4871;52.004;5.924;2023-05-29T02:01:00;8.00;;;2.20;;
9665;SDS011;4871;52.004;5.924;2023-05-29T02:02:04;8.00;;;2.20;;
9665;SDS011;4871;52.004;5.924;2023-05-29T02:03:00;8.00;;;2.20;;
9665;SDS011;4871;52.004;5.924;2023-05-29T02:04:00;8.00;;;2.20;;
9665;SDS011;4871;52.004;5.924;2023-05-29T02:05:00;8.00;;;2.20;;
9665;SDS011;4871;52.004;5.924;2023-05-29T02:06:00;8.00;;;2.20;;
9665;SDS011;4871;52.004;5.924;2023-05-29T02:07:00;8.00;;;2.20;;
9665;SDS011;4871;52.004;5.924;2023-05-29T02:08:00;8.00;;;2.20;;
9665;SDS011;4871;52.004;5.924;2023-05-29T02:09:00;8.00;;;2.20;;
9665;SDS011;4871;52.004;5.924;2023-05-29T02:10:00;8.00;;;2.20;;
9665;SDS011;4871;52.004;5.924;2023-05-29T02:11:00;8.00;;;2.20;;
9665;SDS011;4871;52.004;5.924;2023-05-29T02:12:00;8.00;;;2.20;;
9665;SDS011;4871;52.004;5.924;2023-05-29T02:13:00;8.00;;;2.20;;
9665;SDS011;4871;52.004;5.924;2023-05-29T02:14:03;8.00;;;2.20;;
9665;SDS011;4871;52.004;5.924;2023-05-29T02:15:00;8.00;;;2.20;;
9665;SDS011;4871;52.004;5.924;2023-05-29T02:16:00;8.00;;;2.20;;
9665;SDS011;4871;52.004;5.924;2023-05-29T02:17:01;8.00;;;2.20;;
9665;SDS011;4871;52.004;5.924;2023-05-29T02:18:01;8.00;;;2.20;;
9665;SDS011;4871;52.004;5.924;2023-05-29T02:19:01;8.00;;;2.20;;
9665;SDS011;4871;52.004;5.924;2023-05-29T02:20:00;8.00;;;2.20;;
9665;SDS011;4871;52.004;5.924;2023-05-29T02:21:00;8.00;;;2.20;;
9665;SDS011;4871;52.004;5.924;2023-05-29T02:22:00;8.00;;;2.20;;
9665;SDS011;4871;52.004;5.924;2023-05-29T02:23:00;10.30;;;2.60;;
9665;SDS011;4871;52.004;5.924;2023-05-29T02:24:00;10.30;;;2.60;;
9665;SDS011;4871;52.004;5.924;2023-05-29T02:25:00;10.30;;;2.60;;
9665;SDS011;4871;52.004;5.924;2023-05-29T02:26:00;10.30;;;2.60;;
9665;SDS011;4871;52.004;5.924;2023-05-29T02:27:00;10.30;;;2.60;;
9665;SDS011;4871;52.004;5.924;2023-05-29T02:28:00;10.30;;;2.60;;
9665;SDS011;4871;52.004;5.924;2023-05-29T02:29:00;10.30;;;2.60;;
9665;SDS011;4871;52.004;5.924;2023-05-29T02:30:00;10.30;;;2.60;;
9665;SDS011;4871;52.004;5.924;2023-05-29T02:31:00;10.30;;;2.60;;
9665;SDS011;4871;52.004;5.924;2023-05-29T02:32:00;10.30;;;2.60;;
9665;SDS011;4871;52.004;5.924;2023-05-29T02:33:00;10.30;;;2.60;;
9665;SDS011;4871;52.004;5.924;2023-05-29T02:34:00;10.30;;;2.60;;
9665;SDS011;4871;52.004;5.924;2023-05-29T02:35:00;10.30;;;2.60;;
9665;SDS011;4871;52.004;5.924;2023-05-29T02:36:00;10.30;;;2.60;;
9665;SDS011;4871;52.004;5.924;2023-05-29T02:37:00;10.30;;;2.60;;
9665;SDS011;4871;52.004;5.924;2023-05-29T02:38:00;10.30;;;2.60;;
9665;SDS011;4871;52.004;5.924;2023-05-29T02:39:00;10.30;;;2.60;;
9665;SDS011;4871;52.004;5.924;2023-05-29T02:40:00;10.30;;;2.60;;
9665;SDS011;4871;52.004;5.924;2023-05-29T02:41:00;10.30;;;2.60;;
9665;SDS011;4871;52.004;5.924;2023-05-29T02:42:00;10.30;;;2.60;;
9665;SDS011;4871;52.004;5.924;2023-05-29T02:43:00;10.30;;;2.60;;
9665;SDS011;4871;52.004;5.924;2023-05-29T02:44:00;10.30;;;2.60;;
9665;SDS011;4871;52.004;5.924;2023-05-29T02:45:00;10.30;;;2.60;;
9665;SDS011;4871;52.004;5.924;2023-05-29T02:46:00;10.30;;;2.60;;
9665;SDS011;4871;52.004;5.924;2023-05-29T02:47:00;10.30;;;2.60;;
9665;SDS011;4871;52.004;5.924;2023-05-29T02:48:00;10.30;;;2.60;;
9665;SDS011;4871;52.004;5.924;2023-05-29T02:49:00;10.30;;;2.60;;
9665;SDS011;4871;52.004;5.924;2023-05-29T02:50:00;10.30;;;2.60;;
9665;SDS011;4871;52.004;5.924;2023-05-29T02:51:00;10.30;;;2.60;;
9665;SDS011;4871;52.004;5.924;2023-05-29T02:52:00;6.60;;;2.30;;
9665;SDS011;4871;52.004;5.924;2023-05-29T02:53:00;6.60;;;2.30;;
9665;SDS011;4871;52.004;5.924;2023-05-29T02:54:00;6.60;;;2.30;;
9665;SDS011;4871;52.004;5.924;2023-05-29T02:55:00;6.60;;;2.30;;
9665;SDS011;4871;52.004;5.924;2023-05-29T02:56:00;6.60;;;2.30;;
9665;SDS011;4871;52.004;5.924;2023-05-29T02:57:02;6.60;;;2.30;;
9665;SDS011;4871;52.004;5.924;2023-05-29T02:58:01;6.60;;;2.30;;
9665;SDS011;4871;52.004;5.924;2023-05-29T02:59:00;6.60;;;2.30;;
9665;SDS011;4871;52.004;5.924;2023-05-29T03:00:00;6.60;;;2.30;;
9665;SDS011;4871;52.004;5.924;2023-05-29T03:01:02;6.60;;;2.30;;
9665;SDS011;4871;52.004;5.924;2023-05-29T03:02:00;6.60;;;2.30;;
9665;SDS011;4871;52.004;5.924;2023-05-29T03:03:00;6.60;;;2.30;;
9665;SDS011;4871;52.004;5.924;2023-05-29T03:04:00;6.60;;;2.30;;
9665;SDS011;4871;52.004;5.924;2023-05-29T03:05:00;6.60;;;2.30;;
9665;SDS011;4871;52.004;5.924;2023-05-29T03:06:00;6.60;;;2.30;;
9665;SDS011;4871;52.004;5.924;2023-05-29T03:07:00;6.60;;;2.30;;
9665;SDS011;4871;52.004;5.924;2023-05-29T03:08:00;6.60;;;2.30;;
9665;SDS011;4871;52.004;5.924;2023-05-29T03:09:00;6.60;;;2.30;;
9665;SDS011;4871;52.004;5.924;2023-05-29T03:10:00;6.60;;;2.30;;
9665;SDS011;4871;52.004;5.924;2023-05-29T03:11:00;6.60;;;2.30;;
9665;SDS011;4871;52.004;5.924;2023-05-29T03:12:01;6.60;;;2.30;;
9665;SDS011;4871;52.004;5.924;2023-05-29T03:13:00;6.60;;;2.30;;
9665;SDS011;4871;52.004;5.924;2023-05-29T03:14:00;6.60;;;2.30;;
9665;SDS011;4871;52.004;5.924;2023-05-29T03:15:00;6.60;;;2.30;;
9665;SDS011;4871;52.004;5.924;2023-05-29T03:16:00;6.60;;;2.30;;
9665;SDS011;4871;52.004;5.924;2023-05-29T03:17:01;6.60;;;2.30;;
9665;SDS011;4871;52.004;5.924;2023-05-29T03:18:00;6.60;;;2.30;;
9665;SDS011;4871;52.004;5.924;2023-05-29T03:19:00;6.60;;;2.30;;
9665;SDS011;4871;52.004;5.924;2023-05-29T03:20:00;6.60;;;2.30;;
9665;SDS011;4871;52.004;5.924;2023-05-29T03:21:00;6.60;;;2.30;;
9665;SDS011;4871;52.004;5.924;2023-05-29T03:22:00;7.50;;;2.30;;
9665;SDS011;4871;52.004;5.924;2023-05-29T03:23:00;7.50;;;2.30;;
9665;SDS011;4871;52.004;5.924;2023-05-29T03:24:00;7.50;;;2.30;;
9665;SDS011;4871;52.004;5.924;2023-05-29T03:25:00;7.50;;;2.30;;
9665;SDS011;4871;52.004;5.924;2023-05-29T03:26:00;7.50;;;2.30;;
9665;SDS011;4871;52.004;5.924;2023-05-29T03:27:00;7.50;;;2.30;;
9665;SDS011;4871;52.004;5.924;2023-05-29T03:28:00;7.50;;;2.30;;
9665;SDS011;4871;52.004;5.924;2023-05-29T03:29:00;7.50;;;2.30;;
9665;SDS011;4871;52.004;5.924;2023-05-29T03:30:00;7.50;;;2.30;;
9665;SDS011;4871;52.004;5.924;2023-05-29T03:31:00;7.50;;;2.30;;
9665;SDS011;4871;52.004;5.924;2023-05-29T03:32:00;7.50;;;2.30;;
9665;SDS011;4871;52.004;5.924;2023-05-29T03:33:03;7.50;;;2.30;;
9665;SDS011;4871;52.004;5.924;2023-05-29T03:34:00;7.50;;;2.30;;
9665;SDS011;4871;52.004;5.924;2023-05-29T03:35:00;7.50;;;2.30;;
9665;SDS011;4871;52.004;5.924;2023-05-29T03:36:00;7.50;;;2.30;;
9665;SDS011;4871;52.004;5.924;2023-05-29T03:37:00;7.50;;;2.30;;
9665;SDS011;4871;52.004;5.924;2023-05-29T03:38:00;7.50;;;2.30;;
9665;SDS011;4871;52.004;5.924;2023-05-29T03:39:00;7.50;;;2.30;;
9665;SDS011;4871;52.004;5.924;2023-05-29T03:40:00;7.50;;;2.30;;
9665;SDS011;4871;52.004;5.924;2023-05-29T03:41:00;7.50;;;2.30;;
9665;SDS011;4871;52.004;5.924;2023-05-29T03:42:00;7.50;;;2.30;;
9665;SDS011;4871;52.004;5.924;2023-05-29T03:43:00;7.50;;;2.30;;
9665;SDS011;4871;52.004;5.924;2023-05-29T03:44:00;7.50;;;2.30;;
9665;SDS011;4871;52.004;5.924;2023-05-29T03:45:00;7.50;;;2.30;;
9665;SDS011;4871;52.004;5.924;2023-05-29T03:46:00;7.50;;;2.30;;
9665;SDS011;4871;52.004;5.924;2023-05-29T03:47:00;7.50;;;2.30;;
9665;SDS011;4871;52.004;5.924;2023-05-29T03:48:00;7.50;;;2.30;;
9665;SDS011;4871;52.004;5.924;2023-05-29T03:49:00;7.50;;;2.30;;
9665;SDS011;4871;52.004;5.924;2023-05-29T03:50:00;7.50;;;2.30;;
9665;SDS011;4871;52.004;5.924;2023-05-29T03:51:00;7.50;;;2.30;;
9665;SDS011;4871;52.004;5.924;2023-05-29T03:52:00;9.10;;;2.60;;
9665;SDS011;4871;52.004;5.924;2023-05-29T03:53:00;9.10;;;2.60;;
9665;SDS011;4871;52.004;5.924;2023-05-29T03:54:00;9.10;;;2.60;;
9665;SDS011;4871;52.004;5.924;2023-05-29T03:55:00;9.10;;;2.60;;
9665;SDS011;4871;52.004;5.924;2023-05-29T03:56:00;9.10;;;2.60;;
9665;SDS011;4871;52.004;5.924;2023-05-29T03:57:01;9.10;;;2.60;;
9665;SDS011;4871;52.004;5.924;2023-05-29T03:58:00;9.10;;;2.60;;
9665;SDS011;4871;52.004;5.924;2023-05-29T03:59:00;9.10;;;2.60;;
9665;SDS011;4871;52.004;5.924;2023-05-29T04:00:00;9.10;;;2.60;;
9665;SDS011;4871;52.004;5.924;2023-05-29T04:01:00;9.10;;;2.60;;
9665;SDS011;4871;52.004;5.924;2023-05-29T04:02:00;9.10;;;2.60;;
9665;SDS011;4871;52.004;5.924;2023-05-29T04:03:00;9.10;;;2.60;;
9665;SDS011;4871;52.004;5.924;2023-05-29T04:04:00;9.10;;;2.60;;
9665;SDS011;4871;52.004;5.924;2023-05-29T04:05:00;9.10;;;2.60;;
9665;SDS011;4871;52.004;5.924;2023-05-29T04:06:00;9.10;;;2.60;;
9665;SDS011;4871;52.004;5.924;2023-05-29T04:07:00;9.10;;;2.60;;
9665;SDS011;4871;52.004;5.924;2023-05-29T04:08:00;9.10;;;2.60;;
9665;SDS011;4871;52.004;5.924;2023-05-29T04:09:00;9.10;;;2.60;;
9665;SDS011;4871;52.004;5.924;2023-05-29T04:10:00;9.10;;;2.60;;
9665;SDS011;4871;52.004;5.924;2023-05-29T04:11:01;9.10;;;2.60;;
9665;SDS011;4871;52.004;5.924;2023-05-29T04:12:02;9.10;;;2.60;;
9665;SDS011;4871;52.004;5.924;2023-05-29T04:13:00;9.10;;;2.60;;
9665;SDS011;4871;52.004;5.924;2023-05-29T04:14:00;9.10;;;2.60;;
9665;SDS011;4871;52.004;5.924;2023-05-29T04:15:00;9.10;;;2.60;;
9665;SDS011;4871;52.004;5.924;2023-05-29T04:16:00;9.10;;;2.60;;
9665;SDS011;4871;52.004;5.924;2023-05-29T04:17:00;9.10;;;2.60;;
9665;SDS011;4871;52.004;5.924;2023-05-29T04:18:00;9.10;;;2.60;;
9665;SDS011;4871;52.004;5.924;2023-05-29T04:19:00;9.10;;;2.60;;
9665;SDS011;4871;52.004;5.924;2023-05-29T04:20:06;9.10;;;2.60;;
9665;SDS011;4871;52.004;5.924;2023-05-29T04:21:00;9.10;;;2.60;;
9665;SDS011;4871;52.004;5.924;2023-05-29T04:22:00;9.20;;;2.60;;
9665;SDS011;4871;52.004;5.924;2023-05-29T04:23:00;9.20;;;2.60;;
9665;SDS011;4871;52.004;5.924;2023-05-29T04:24:00;9.20;;;2.60;;
9665;SDS011;4871;52.004;5.924;2023-05-29T04:25:00;9.20;;;2.60;;
9665;SDS011;4871;52.004;5.924;2023-05-29T04:26:01;9.20;;;2.60;;
9665;SDS011;4871;52.004;5.924;2023-05-29T04:27:01;9.20;;;2.60;;
9665;SDS011;4871;52.004;5.924;2023-05-29T04:28:02;9.20;;;2.60;;
9665;SDS011;4871;52.004;5.924;2023-05-29T04:29:00;9.20;;;2.60;;
9665;SDS011;4871;52.004;5.924;2023-05-29T04:30:00;9.20;;;2.60;;
9665;SDS011;4871;52.004;5.924;2023-05-29T04:31:00;9.20;;;2.60;;
9665;SDS011;4871;52.004;5.924;2023-05-29T04:32:03;9.20;;;2.60;;
9665;SDS011;4871;52.004;5.924;2023-05-29T04:33:00;9.20;;;2.60;;
9665;SDS011;4871;52.004;5.924;2023-05-29T04:34:00;9.20;;;2.60;;
9665;SDS011;4871;52.004;5.924;2023-05-29T04:35:02;9.20;;;2.60;;
9665;SDS011;4871;52.004;5.924;2023-05-29T04:36:01;9.20;;;2.60;;
9665;SDS011;4871;52.004;5.924;2023-05-29T04:37:00;9.20;;;2.60;;
9665;SDS011;4871;52.004;5.924;2023-05-29T04:38:00;9.20;;;2.60;;
9665;SDS011;4871;52.004;5.924;2023-05-29T04:39:00;9.20;;;2.60;;
9665;SDS011;4871;52.004;5.924;2023-05-29T04:40:01;9.20;;;2.60;;
9665;SDS011;4871;52.004;5.924;2023-05-29T04:41:00;9.20;;;2.60;;
9665;SDS011;4871;52.004;5.924;2023-05-29T04:42:00;9.20;;;2.60;;
9665;SDS011;4871;52.004;5.924;2023-05-29T04:43:00;9.20;;;2.60;;
9665;SDS011;4871;52.004;5.924;2023-05-29T04:44:00;9.20;;;2.60;;
9665;SDS011;4871;52.004;5.924;2023-05-29T04:45:00;9.20;;;2.60;;
9665;SDS011;4871;52.004;5.924;2023-05-29T04:46:00;9.20;;;2.60;;
9665;SDS011;4871;52.004;5.924;2023-05-29T04:47:03;9.20;;;2.60;;
9665;SDS011;4871;52.004;5.924;2023-05-29T04:48:00;9.20;;;2.60;;
9665;SDS011;4871;52.004;5.924;2023-05-29T04:49:02;9.20;;;2.60;;
9665;SDS011;4871;52.004;5.924;2023-05-29T04:50:00;9.20;;;2.60;;
9665;SDS011;4871;52.004;5.924;2023-05-29T04:51:00;9.20;;;2.60;;
9665;SDS011;4871;52.004;5.924;2023-05-29T04:52:00;10.10;;;2.80;;
9665;SDS011;4871;52.004;5.924;2023-05-29T04:53:00;10.10;;;2.80;;
9665;SDS011;4871;52.004;5.924;2023-05-29T04:54:00;10.10;;;2.80;;
9665;SDS011;4871;52.004;5.924;2023-05-29T04:55:00;10.10;;;2.80;;
9665;SDS011;4871;52.004;5.924;2023-05-29T04:56:00;10.10;;;2.80;;
9665;SDS011;4871;52.004;5.924;2023-05-29T04:57:00;10.10;;;2.80;;
9665;SDS011;4871;52.004;5.924;2023-05-29T04:58:00;10.10;;;2.80;;
9665;SDS011;4871;52.004;5.924;2023-05-29T04:59:00;10.10;;;2.80;;
9665;SDS011;4871;52.004;5.924;2023-05-29T05:00:00;10.10;;;2.80;;
9665;SDS011;4871;52.004;5.924;2023-05-29T05:01:03;10.10;;;2.80;;
9665;SDS011;4871;52.004;5.924;2023-05-29T05:02:00;10.10;;;2.80;;
9665;SDS011;4871;52.004;5.924;2023-05-29T05:03:00;10.10;;;2.80;;
9665;SDS011;4871;52.004;5.924;2023-05-29T05:04:00;10.10;;;2.80;;
9665;SDS011;4871;52.004;5.924;2023-05-29T05:05:00;10.10;;;2.80;;
9665;SDS011;4871;52.004;5.924;2023-05-29T05:06:02;10.10;;;2.80;;
9665;SDS011;4871;52.004;5.924;2023-05-29T05:07:00;10.10;;;2.80;;
9665;SDS011;4871;52.004;5.924;2023-05-29T05:08:00;10.10;;;2.80;;
9665;SDS011;4871;52.004;5.924;2023-05-29T05:09:00;10.10;;;2.80;;
9665;SDS011;4871;52.004;5.924;2023-05-29T05:10:00;10.10;;;2.80;;
9665;SDS011;4871;52.004;5.924;2023-05-29T05:11:00;10.10;;;2.80;;
9665;SDS011;4871;52.004;5.924;2023-05-29T05:12:01;10.10;;;2.80;;
9665;SDS011;4871;52.004;5.924;2023-05-29T05:13:02;10.10;;;2.80;;
9665;SDS011;4871;52.004;5.924;2023-05-29T05:14:00;10.10;;;2.80;;
9665;SDS011;4871;52.004;5.924;2023-05-29T05:15:00;10.10;;;2.80;;
9665;SDS011;4871;52.004;5.924;2023-05-29T05:16:01;10.10;;;2.80;;
9665;SDS011;4871;52.004;5.924;2023-05-29T05:17:00;10.10;;;2.80;;
9665;SDS011;4871;52.004;5.924;2023-05-29T05:18:00;10.10;;;2.80;;
9665;SDS011;4871;52.004;5.924;2023-05-29T05:19:00;10.10;;;2.80;;
9665;SDS011;4871;52.004;5.924;2023-05-29T05:20:00;10.10;;;2.80;;
9665;SDS011;4871;52.004;5.924;2023-05-29T05:21:00;10.10;;;2.80;;
9665;SDS011;4871;52.004;5.924;2023-05-29T05:22:00;7.10;;;2.60;;
9665;SDS011;4871;52.004;5.924;2023-05-29T05:23:00;7.10;;;2.60;;
9665;SDS011;4871;52.004;5.924;2023-05-29T05:24:00;7.10;;;2.60;;
9665;SDS011;4871;52.004;5.924;2023-05-29T05:25:00;7.10;;;2.60;;
9665;SDS011;4871;52.004;5.924;2023-05-29T05:26:00;7.10;;;2.60;;
9665;SDS011;4871;52.004;5.924;2023-05-29T05:27:00;7.10;;;2.60;;
9665;SDS011;4871;52.004;5.924;2023-05-29T05:28:00;7.10;;;2.60;;
9665;SDS011;4871;52.004;5.924;2023-05-29T05:29:00;7.10;;;2.60;;
9665;SDS011;4871;52.004;5.924;2023-05-29T05:30:00;7.10;;;2.60;;
9665;SDS011;4871;52.004;5.924;2023-05-29T05:31:01;7.10;;;2.60;;
9665;SDS011;4871;52.004;5.924;2023-05-29T05:32:00;7.10;;;2.60;;
9665;SDS011;4871;52.004;5.924;2023-05-29T05:33:00;7.10;;;2.60;;
9665;SDS011;4871;52.004;5.924;2023-05-29T05:34:00;7.10;;;2.60;;
9665;SDS011;4871;52.004;5.924;2023-05-29T05:35:00;7.10;;;2.60;;
9665;SDS011;4871;52.004;5.924;2023-05-29T05:36:00;7.10;;;2.60;;
9665;SDS011;4871;52.004;5.924;2023-05-29T05:37:00;7.10;;;2.60;;
9665;SDS011;4871;52.004;5.924;2023-05-29T05:38:00;7.10;;;2.60;;
9665;SDS011;4871;52.004;5.924;2023-05-29T05:39:00;7.10;;;2.60;;
9665;SDS011;4871;52.004;5.924;2023-05-29T05:40:00;7.10;;;2.60;;
9665;SDS011;4871;52.004;5.924;2023-05-29T05:41:00;7.10;;;2.60;;
9665;SDS011;4871;52.004;5.924;2023-05-29T05:42:01;7.10;;;2.60;;
9665;SDS011;4871;52.004;5.924;2023-05-29T05:43:00;7.10;;;2.60;;
9665;SDS011;4871;52.004;5.924;2023-05-29T05:44:00;7.10;;;2.60;;
9665;SDS011;4871;52.004;5.924;2023-05-29T05:45:00;7.10;;;2.60;;
9665;SDS011;4871;52.004;5.924;2023-05-29T05:46:00;7.10;;;2.60;;
9665;SDS011;4871;52.004;5.924;2023-05-29T05:47:00;7.10;;;2.60;;
9665;SDS011;4871;52.004;5.924;2023-05-29T05:48:01;7.10;;;2.60;;
9665;SDS011;4871;52.004;5.924;2023-05-29T05:49:00;7.10;;;2.60;;
9665;SDS011;4871;52.004;5.924;2023-05-29T05:50:00;7.10;;;2.60;;
9665;SDS011;4871;52.004;5.924;2023-05-29T05:51:00;7.10;;;2.60;;
9665;SDS011;4871;52.004;5.924;2023-05-29T05:52:00;9.50;;;2.80;;
9665;SDS011;4871;52.004;5.924;2023-05-29T05:53:00;9.50;;;2.80;;
9665;SDS011;4871;52.004;5.924;2023-05-29T05:54:00;9.50;;;2.80;;
9665;SDS011;4871;52.004;5.924;2023-05-29T05:55:00;9.50;;;2.80;;
9665;SDS011;4871;52.004;5.924;2023-05-29T05:56:00;9.50;;;2.80;;
9665;SDS011;4871;52.004;5.924;2023-05-29T05:57:00;9.50;;;2.80;;
9665;SDS011;4871;52.004;5.924;2023-05-29T05:58:00;9.50;;;2.80;;
9665;SDS011;4871;52.004;5.924;2023-05-29T05:59:00;9.50;;;2.80;;
9665;SDS011;4871;52.004;5.924;2023-05-29T06:00:00;9.50;;;2.80;;
9665;SDS011;4871;52.004;5.924;2023-05-29T06:01:01;9.50;;;2.80;;
9665;SDS011;4871;52.004;5.924;2023-05-29T06:02:00;9.50;;;2.80;;
9665;SDS011;4871;52.004;5.924;2023-05-29T06:03:02;9.50;;;2.80;;
9665;SDS011;4871;52.004;5.924;2023-05-29T06:04:00;9.50;;;2.80;;
9665;SDS011;4871;52.004;5.924;2023-05-29T06:05:00;9.50;;;2.80;;
9665;SDS011;4871;52.004;5.924;2023-05-29T06:06:00;9.50;;;2.80;;
9665;SDS011;4871;52.004;5.924;2023-05-29T06:07:00;9.50;;;2.80;;
9665;SDS011;4871;52.004;5.924;2023-05-29T06:08:00;9.50;;;2.80;;
9665;SDS011;4871;52.004;5.924;2023-05-29T06:09:00;9.50;;;2.80;;
9665;SDS011;4871;52.004;5.924;2023-05-29T06:10:00;9.50;;;2.80;;
9665;SDS011;4871;52.004;5.924;2023-05-29T06:11:00;9.50;;;2.80;;